sensor_id;sensor_type;location;lat;lon;timestamp;P1;durP1;ratioP1;P2;durP2;ratioP2
5279;SDS011;2663;53.588;10.010;2023-04-24T00:01:06;7.63;;;5.97;;
5279;SDS011;2663;53.588;10.010;2023-04-24T00:03:33;9.80;;;6.80;;
5279;SDS011;2663;53.588;10.010;2023-04-24T00:06:01;8.17;;;6.37;;
5279;SDS011;2663;53.588;10.010;2023-04-24T00:08:28;8.53;;;5.50;;
5279;SDS011;2663;53.588;10.010;2023-04-24T00:10:55;7.17;;;6.47;;
5279;SDS011;2663;53.588;10.010;2023-04-24T00:13:22;7.50;;;5.50;;
5279;SDS011;2663;53.588;10.010;2023-04-24T00:15:49;9.10;;;6.30;;
5279;SDS011;2663;53.588;10.010;2023-04-24T00:18:16;6.57;;;5.80;;
5279;SDS011;2663;53.588;10.010;2023-04-24T00:20:42;9.90;;;6.40;;
5279;SDS011;2663;53.588;10.010;2023-04-24T00:23:10;10.30;;;6.57;;
5279;SDS011;2663;53.588;10.010;2023-04-24T00:25:36;9.27;;;5.70;;
5279;SDS011;2663;53.588;10.010;2023-04-24T00:28:03;12.90;;;6.40;;
5279;SDS011;2663;53.588;10.010;2023-04-24T00:30:30;8.53;;;5.10;;
5279;SDS011;2663;53.588;10.010;2023-04-24T00:32:57;7.10;;;6.30;;
5279;SDS011;2663;53.588;10.010;2023-04-24T00:35:24;5.47;;;4.97;;
5279;SDS011;2663;53.588;10.010;2023-04-24T00:37:51;5.33;;;4.83;;
5279;SDS011;2663;53.588;10.010;2023-04-24T00:40:17;8.23;;;5.20;;
5279;SDS011;2663;53.588;10.010;2023-04-24T00:42:44;6.03;;;5.30;;
5279;SDS011;2663;53.588;10.010;2023-04-24T00:45:11;9.23;;;6.30;;
5279;SDS011;2663;53.588;10.010;2023-04-24T00:47:39;6.03;;;5.23;;
5279;SDS011;2663;53.588;10.010;2023-04-24T00:50:06;6.10;;;5.50;;
5279;SDS011;2663;53.588;10.010;2023-04-24T00:52:33;9.47;;;6.20;;
5279;SDS011;2663;53.588;10.010;2023-04-24T00:55:00;7.97;;;6.00;;
5279;SDS011;2663;53.588;10.010;2023-04-24T00:57:27;8.77;;;6.03;;
5279;SDS011;2663;53.588;10.010;2023-04-24T00:59:54;12.40;;;6.30;;
5279;SDS011;2663;53.588;10.010;2023-04-24T01:02:21;8.50;;;6.53;;
5279;SDS011;2663;53.588;10.010;2023-04-24T01:04:50;7.10;;;5.50;;
5279;SDS011;2663;53.588;10.010;2023-04-24T01:07:19;9.90;;;6.30;;
5279;SDS011;2663;53.588;10.010;2023-04-24T01:09:47;8.40;;;6.17;;
5279;SDS011;2663;53.588;10.010;2023-04-24T01:12:15;5.73;;;5.10;;
5279;SDS011;2663;53.588;10.010;2023-04-24T01:14:41;13.27;;;5.10;;
5279;SDS011;2663;53.588;10.010;2023-04-24T01:17:08;12.77;;;5.67;;
5279;SDS011;2663;53.588;10.010;2023-04-24T01:19:35;5.87;;;5.27;;
5279;SDS011;2663;53.588;10.010;2023-04-24T01:22:03;7.90;;;4.50;;
5279;SDS011;2663;53.588;10.010;2023-04-24T01:24:38;6.83;;;4.97;;
5279;SDS011;2663;53.588;10.010;2023-04-24T01:27:04;6.50;;;5.10;;
5279;SDS011;2663;53.588;10.010;2023-04-24T01:29:32;6.20;;;3.90;;
5279;SDS011;2663;53.588;10.010;2023-04-24T01:31:59;8.83;;;3.97;;
5279;SDS011;2663;53.588;10.010;2023-04-24T01:34:26;9.80;;;5.40;;
5279;SDS011;2663;53.588;10.010;2023-04-24T01:36:52;6.93;;;4.40;;
5279;SDS011;2663;53.588;10.010;2023-04-24T01:39:19;4.33;;;3.93;;
5279;SDS011;2663;53.588;10.010;2023-04-24T01:41:46;10.43;;;4.10;;
5279;SDS011;2663;53.588;10.010;2023-04-24T01:44:13;9.40;;;5.03;;
5279;SDS011;2663;53.588;10.010;2023-04-24T01:46:40;6.07;;;3.50;;
5279;SDS011;2663;53.588;10.010;2023-04-24T01:49:07;6.50;;;4.50;;
5279;SDS011;2663;53.588;10.010;2023-04-24T01:51:34;4.80;;;4.30;;
5279;SDS011;2663;53.588;10.010;2023-04-24T01:54:01;4.70;;;4.20;;
5279;SDS011;2663;53.588;10.010;2023-04-24T01:56:30;4.77;;;3.97;;
5279;SDS011;2663;53.588;10.010;2023-04-24T01:58:59;9.53;;;4.30;;
5279;SDS011;2663;53.588;10.010;2023-04-24T02:01:27;4.87;;;3.93;;
5279;SDS011;2663;53.588;10.010;2023-04-24T02:04:03;4.63;;;3.47;;
5279;SDS011;2663;53.588;10.010;2023-04-24T02:06:31;4.10;;;3.80;;
5279;SDS011;2663;53.588;10.010;2023-04-24T02:09:00;3.27;;;3.03;;
5279;SDS011;2663;53.588;10.010;2023-04-24T02:11:27;3.40;;;3.10;;
5279;SDS011;2663;53.588;10.010;2023-04-24T02:13:54;3.27;;;2.83;;
5279;SDS011;2663;53.588;10.010;2023-04-24T02:16:20;4.77;;;3.17;;
5279;SDS011;2663;53.588;10.010;2023-04-24T02:18:47;2.30;;;2.00;;
5279;SDS011;2663;53.588;10.010;2023-04-24T02:21:14;3.53;;;2.23;;
5279;SDS011;2663;53.588;10.010;2023-04-24T02:23:41;3.40;;;2.33;;
5279;SDS011;2663;53.588;10.010;2023-04-24T02:26:07;2.43;;;2.20;;
5279;SDS011;2663;53.588;10.010;2023-04-24T02:28:34;2.60;;;2.43;;
5279;SDS011;2663;53.588;10.010;2023-04-24T02:31:01;6.60;;;3.13;;
5279;SDS011;2663;53.588;10.010;2023-04-24T02:33:28;2.57;;;2.37;;
5279;SDS011;2663;53.588;10.010;2023-04-24T02:35:54;3.30;;;2.70;;
5279;SDS011;2663;53.588;10.010;2023-04-24T02:38:21;3.80;;;2.90;;
5279;SDS011;2663;53.588;10.010;2023-04-24T02:40:48;2.97;;;2.77;;
5279;SDS011;2663;53.588;10.010;2023-04-24T02:43:14;3.40;;;2.80;;
5279;SDS011;2663;53.588;10.010;2023-04-24T02:45:41;3.10;;;2.90;;
5279;SDS011;2663;53.588;10.010;2023-04-24T02:48:08;24.63;;;3.17;;
5279;SDS011;2663;53.588;10.010;2023-04-24T02:50:34;3.70;;;2.33;;
5279;SDS011;2663;53.588;10.010;2023-04-24T02:53:01;2.80;;;2.60;;
5279;SDS011;2663;53.588;10.010;2023-04-24T02:55:28;2.77;;;2.57;;
5279;SDS011;2663;53.588;10.010;2023-04-24T02:57:55;2.70;;;2.50;;
5279;SDS011;2663;53.588;10.010;2023-04-24T03:00:22;3.73;;;2.77;;
5279;SDS011;2663;53.588;10.010;2023-04-24T03:02:48;5.00;;;2.57;;
5279;SDS011;2663;53.588;10.010;2023-04-24T03:05:16;6.83;;;2.30;;
5279;SDS011;2663;53.588;10.010;2023-04-24T03:07:42;2.27;;;2.10;;
5279;SDS011;2663;53.588;10.010;2023-04-24T03:10:09;3.17;;;2.70;;
5279;SDS011;2663;53.588;10.010;2023-04-24T03:12:36;2.33;;;2.23;;
5279;SDS011;2663;53.588;10.010;2023-04-24T03:15:03;2.03;;;1.83;;
5279;SDS011;2663;53.588;10.010;2023-04-24T03:17:29;3.83;;;2.30;;
5279;SDS011;2663;53.588;10.010;2023-04-24T03:19:57;2.50;;;2.30;;
5279;SDS011;2663;53.588;10.010;2023-04-24T03:22:24;2.23;;;2.07;;
5279;SDS011;2663;53.588;10.010;2023-04-24T03:24:51;2.07;;;1.90;;
5279;SDS011;2663;53.588;10.010;2023-04-24T03:27:17;2.33;;;2.10;;
5279;SDS011;2663;53.588;10.010;2023-04-24T03:29:44;3.27;;;2.07;;
5279;SDS011;2663;53.588;10.010;2023-04-24T03:32:11;3.83;;;1.80;;
5279;SDS011;2663;53.588;10.010;2023-04-24T03:34:37;2.27;;;1.67;;
5279;SDS011;2663;53.588;10.010;2023-04-24T03:37:04;2.60;;;1.90;;
5279;SDS011;2663;53.588;10.010;2023-04-24T03:39:30;1.70;;;1.60;;
5279;SDS011;2663;53.588;10.010;2023-04-24T03:41:57;2.00;;;1.90;;
5279;SDS011;2663;53.588;10.010;2023-04-24T03:44:24;2.17;;;1.60;;
5279;SDS011;2663;53.588;10.010;2023-04-24T03:46:50;2.97;;;2.67;;
5279;SDS011;2663;53.588;10.010;2023-04-24T03:49:17;1.70;;;1.60;;
5279;SDS011;2663;53.588;10.010;2023-04-24T03:51:44;6.83;;;1.70;;
5279;SDS011;2663;53.588;10.010;2023-04-24T03:54:11;2.53;;;1.83;;
5279;SDS011;2663;53.588;10.010;2023-04-24T03:56:37;3.03;;;1.70;;
5279;SDS011;2663;53.588;10.010;2023-04-24T03:59:04;1.60;;;1.50;;
5279;SDS011;2663;53.588;10.010;2023-04-24T04:01:31;2.83;;;1.90;;
5279;SDS011;2663;53.588;10.010;2023-04-24T04:03:57;1.70;;;1.60;;
5279;SDS011;2663;53.588;10.010;2023-04-24T04:06:24;2.60;;;1.60;;
5279;SDS011;2663;53.588;10.010;2023-04-24T04:08:51;2.37;;;2.17;;
5279;SDS011;2663;53.588;10.010;2023-04-24T04:11:17;2.00;;;1.90;;
5279;SDS011;2663;53.588;10.010;2023-04-24T04:13:44;1.73;;;1.63;;
5279;SDS011;2663;53.588;10.010;2023-04-24T04:16:14;1.80;;;1.70;;
5279;SDS011;2663;53.588;10.010;2023-04-24T04:18:43;1.73;;;1.60;;
5279;SDS011;2663;53.588;10.010;2023-04-24T04:21:10;2.90;;;1.37;;
5279;SDS011;2663;53.588;10.010;2023-04-24T04:23:37;1.17;;;1.17;;
5279;SDS011;2663;53.588;10.010;2023-04-24T04:26:03;2.20;;;1.20;;
5279;SDS011;2663;53.588;10.010;2023-04-24T04:28:31;1.27;;;1.17;;
5279;SDS011;2663;53.588;10.010;2023-04-24T04:30:58;1.03;;;1.03;;
5279;SDS011;2663;53.588;10.010;2023-04-24T04:33:25;1.40;;;1.30;;
5279;SDS011;2663;53.588;10.010;2023-04-24T04:35:52;1.20;;;1.00;;
5279;SDS011;2663;53.588;10.010;2023-04-24T04:38:19;1.10;;;1.00;;
5279;SDS011;2663;53.588;10.010;2023-04-24T04:40:45;2.60;;;2.20;;
5279;SDS011;2663;53.588;10.010;2023-04-24T04:43:12;1.07;;;1.07;;
5279;SDS011;2663;53.588;10.010;2023-04-24T04:45:41;2.10;;;1.20;;
5279;SDS011;2663;53.588;10.010;2023-04-24T04:48:09;1.47;;;1.23;;
5279;SDS011;2663;53.588;10.010;2023-04-24T04:50:38;1.40;;;1.30;;
5279;SDS011;2663;53.588;10.010;2023-04-24T04:53:05;3.43;;;1.53;;
5279;SDS011;2663;53.588;10.010;2023-04-24T04:55:31;3.77;;;1.77;;
5279;SDS011;2663;53.588;10.010;2023-04-24T04:57:58;1.30;;;1.20;;
5279;SDS011;2663;53.588;10.010;2023-04-24T05:00:26;5.37;;;1.30;;
5279;SDS011;2663;53.588;10.010;2023-04-24T05:02:54;1.23;;;1.23;;
5279;SDS011;2663;53.588;10.010;2023-04-24T05:05:34;8.03;;;1.47;;
5279;SDS011;2663;53.588;10.010;2023-04-24T05:08:01;2.30;;;1.60;;
5279;SDS011;2663;53.588;10.010;2023-04-24T05:10:28;4.10;;;1.47;;
5279;SDS011;2663;53.588;10.010;2023-04-24T05:12:54;1.90;;;1.33;;
5279;SDS011;2663;53.588;10.010;2023-04-24T05:15:21;4.60;;;1.43;;
5279;SDS011;2663;53.588;10.010;2023-04-24T05:17:48;1.40;;;1.30;;
5279;SDS011;2663;53.588;10.010;2023-04-24T05:20:14;1.77;;;1.30;;
5279;SDS011;2663;53.588;10.010;2023-04-24T05:22:41;3.43;;;1.57;;
5279;SDS011;2663;53.588;10.010;2023-04-24T05:25:08;2.77;;;2.53;;
5279;SDS011;2663;53.588;10.010;2023-04-24T05:27:34;5.30;;;1.17;;
5279;SDS011;2663;53.588;10.010;2023-04-24T05:30:01;2.13;;;1.33;;
5279;SDS011;2663;53.588;10.010;2023-04-24T05:32:28;3.33;;;1.20;;
5279;SDS011;2663;53.588;10.010;2023-04-24T05:34:55;1.63;;;1.20;;
5279;SDS011;2663;53.588;10.010;2023-04-24T05:37:22;1.03;;;1.03;;
5279;SDS011;2663;53.588;10.010;2023-04-24T05:39:48;1.07;;;0.97;;
5279;SDS011;2663;53.588;10.010;2023-04-24T05:42:15;1.33;;;1.20;;
5279;SDS011;2663;53.588;10.010;2023-04-24T05:44:42;1.40;;;1.30;;
5279;SDS011;2663;53.588;10.010;2023-04-24T05:47:08;1.10;;;1.10;;
5279;SDS011;2663;53.588;10.010;2023-04-24T05:49:35;1.30;;;1.20;;
5279;SDS011;2663;53.588;10.010;2023-04-24T05:52:02;6.03;;;1.47;;
5279;SDS011;2663;53.588;10.010;2023-04-24T05:54:30;2.93;;;1.33;;
5279;SDS011;2663;53.588;10.010;2023-04-24T05:56:56;1.33;;;1.23;;
5279;SDS011;2663;53.588;10.010;2023-04-24T05:59:23;1.37;;;1.27;;
5279;SDS011;2663;53.588;10.010;2023-04-24T06:01:50;1.53;;;1.43;;
5279;SDS011;2663;53.588;10.010;2023-04-24T06:04:17;2.53;;;1.23;;
5279;SDS011;2663;53.588;10.010;2023-04-24T06:06:44;7.40;;;1.40;;
5279;SDS011;2663;53.588;10.010;2023-04-24T06:09:11;1.50;;;1.40;;
5279;SDS011;2663;53.588;10.010;2023-04-24T06:11:38;1.83;;;1.63;;
5279;SDS011;2663;53.588;10.010;2023-04-24T06:14:05;4.77;;;1.40;;
5279;SDS011;2663;53.588;10.010;2023-04-24T06:16:32;1.63;;;1.50;;
5279;SDS011;2663;53.588;10.010;2023-04-24T06:18:59;3.07;;;1.33;;
5279;SDS011;2663;53.588;10.010;2023-04-24T06:21:25;2.40;;;1.20;;
5279;SDS011;2663;53.588;10.010;2023-04-24T06:23:53;3.07;;;1.77;;
5279;SDS011;2663;53.588;10.010;2023-04-24T06:26:22;2.13;;;1.43;;
5279;SDS011;2663;53.588;10.010;2023-04-24T06:28:51;1.37;;;1.30;;
5279;SDS011;2663;53.588;10.010;2023-04-24T06:31:17;1.30;;;1.30;;
5279;SDS011;2663;53.588;10.010;2023-04-24T06:33:44;2.70;;;1.57;;
5279;SDS011;2663;53.588;10.010;2023-04-24T06:36:11;3.90;;;3.00;;
5279;SDS011;2663;53.588;10.010;2023-04-24T06:38:38;3.53;;;1.70;;
5279;SDS011;2663;53.588;10.010;2023-04-24T06:41:05;1.27;;;1.27;;
5279;SDS011;2663;53.588;10.010;2023-04-24T06:43:32;1.73;;;1.63;;
5279;SDS011;2663;53.588;10.010;2023-04-24T06:45:59;1.70;;;1.60;;
5279;SDS011;2663;53.588;10.010;2023-04-24T06:48:26;1.97;;;1.23;;
5279;SDS011;2663;53.588;10.010;2023-04-24T06:50:53;2.40;;;1.33;;
5279;SDS011;2663;53.588;10.010;2023-04-24T06:53:19;2.40;;;1.83;;
5279;SDS011;2663;53.588;10.010;2023-04-24T06:55:46;1.43;;;1.10;;
5279;SDS011;2663;53.588;10.010;2023-04-24T06:58:13;2.10;;;2.00;;
5279;SDS011;2663;53.588;10.010;2023-04-24T07:00:41;2.60;;;2.40;;
5279;SDS011;2663;53.588;10.010;2023-04-24T07:03:07;2.47;;;2.13;;
5279;SDS011;2663;53.588;10.010;2023-04-24T07:05:34;2.10;;;1.90;;
5279;SDS011;2663;53.588;10.010;2023-04-24T07:08:01;2.50;;;2.30;;
5279;SDS011;2663;53.588;10.010;2023-04-24T07:10:28;3.10;;;2.07;;
5279;SDS011;2663;53.588;10.010;2023-04-24T07:12:56;3.10;;;2.60;;
5279;SDS011;2663;53.588;10.010;2023-04-24T07:15:22;7.53;;;2.90;;
5279;SDS011;2663;53.588;10.010;2023-04-24T07:17:49;2.03;;;1.83;;
5279;SDS011;2663;53.588;10.010;2023-04-24T07:20:16;4.60;;;2.27;;
5279;SDS011;2663;53.588;10.010;2023-04-24T07:22:43;1.70;;;1.57;;
5279;SDS011;2663;53.588;10.010;2023-04-24T07:25:09;3.67;;;2.77;;
5279;SDS011;2663;53.588;10.010;2023-04-24T07:27:36;2.30;;;2.13;;
5279;SDS011;2663;53.588;10.010;2023-04-24T07:30:03;3.20;;;2.90;;
5279;SDS011;2663;53.588;10.010;2023-04-24T07:32:31;7.33;;;2.47;;
5279;SDS011;2663;53.588;10.010;2023-04-24T07:34:57;2.20;;;2.10;;
5279;SDS011;2663;53.588;10.010;2023-04-24T07:37:24;7.40;;;3.47;;
5279;SDS011;2663;53.588;10.010;2023-04-24T07:39:51;9.50;;;5.40;;
5279;SDS011;2663;53.588;10.010;2023-04-24T07:42:18;3.17;;;2.97;;
5279;SDS011;2663;53.588;10.010;2023-04-24T07:44:44;3.00;;;2.80;;
5279;SDS011;2663;53.588;10.010;2023-04-24T07:47:13;3.07;;;2.40;;
5279;SDS011;2663;53.588;10.010;2023-04-24T07:49:43;9.60;;;3.40;;
5279;SDS011;2663;53.588;10.010;2023-04-24T07:52:10;4.23;;;3.10;;
5279;SDS011;2663;53.588;10.010;2023-04-24T07:54:37;4.97;;;3.30;;
5279;SDS011;2663;53.588;10.010;2023-04-24T07:57:03;4.70;;;3.03;;
5279;SDS011;2663;53.588;10.010;2023-04-24T07:59:32;2.93;;;2.73;;
5279;SDS011;2663;53.588;10.010;2023-04-24T08:01:59;4.60;;;3.23;;
5279;SDS011;2663;53.588;10.010;2023-04-24T08:04:27;4.83;;;3.60;;
5279;SDS011;2663;53.588;10.010;2023-04-24T08:06:54;4.63;;;3.50;;
5279;SDS011;2663;53.588;10.010;2023-04-24T08:09:21;8.30;;;3.57;;
5279;SDS011;2663;53.588;10.010;2023-04-24T08:11:48;4.10;;;3.50;;
5279;SDS011;2663;53.588;10.010;2023-04-24T08:14:14;5.43;;;4.10;;
5279;SDS011;2663;53.588;10.010;2023-04-24T08:16:41;5.87;;;3.80;;
5279;SDS011;2663;53.588;10.010;2023-04-24T08:19:08;3.70;;;3.40;;
5279;SDS011;2663;53.588;10.010;2023-04-24T08:21:35;4.30;;;3.80;;
5279;SDS011;2663;53.588;10.010;2023-04-24T08:24:02;3.83;;;3.50;;
5279;SDS011;2663;53.588;10.010;2023-04-24T08:26:31;6.77;;;4.00;;
5279;SDS011;2663;53.588;10.010;2023-04-24T08:28:58;7.50;;;5.30;;
5279;SDS011;2663;53.588;10.010;2023-04-24T08:31:24;5.33;;;4.10;;
5279;SDS011;2663;53.588;10.010;2023-04-24T08:33:52;5.40;;;4.90;;
5279;SDS011;2663;53.588;10.010;2023-04-24T08:36:18;4.63;;;3.50;;
5279;SDS011;2663;53.588;10.010;2023-04-24T08:38:45;5.57;;;4.20;;
5279;SDS011;2663;53.588;10.010;2023-04-24T08:41:12;3.00;;;2.43;;
5279;SDS011;2663;53.588;10.010;2023-04-24T08:43:40;4.40;;;4.00;;
5279;SDS011;2663;53.588;10.010;2023-04-24T08:46:08;5.70;;;4.00;;
5279;SDS011;2663;53.588;10.010;2023-04-24T08:48:37;3.77;;;3.17;;
5279;SDS011;2663;53.588;10.010;2023-04-24T08:51:06;7.00;;;4.60;;
5279;SDS011;2663;53.588;10.010;2023-04-24T08:53:34;5.57;;;4.70;;
5279;SDS011;2663;53.588;10.010;2023-04-24T08:56:02;4.80;;;4.17;;
5279;SDS011;2663;53.588;10.010;2023-04-24T08:58:29;4.20;;;3.80;;
5279;SDS011;2663;53.588;10.010;2023-04-24T09:00:57;10.40;;;5.37;;
5279;SDS011;2663;53.588;10.010;2023-04-24T09:03:26;5.80;;;5.20;;
5279;SDS011;2663;53.588;10.010;2023-04-24T09:05:54;6.37;;;5.13;;
5279;SDS011;2663;53.588;10.010;2023-04-24T09:08:22;6.03;;;5.27;;
5279;SDS011;2663;53.588;10.010;2023-04-24T09:10:51;5.90;;;5.40;;
5279;SDS011;2663;53.588;10.010;2023-04-24T09:13:19;14.50;;;5.60;;
5279;SDS011;2663;53.588;10.010;2023-04-24T09:15:46;12.30;;;5.07;;
5279;SDS011;2663;53.588;10.010;2023-04-24T09:18:13;6.50;;;5.47;;
5279;SDS011;2663;53.588;10.010;2023-04-24T09:20:58;6.50;;;5.80;;
5279;SDS011;2663;53.588;10.010;2023-04-24T09:23:27;7.00;;;4.67;;
5279;SDS011;2663;53.588;10.010;2023-04-24T09:25:55;9.10;;;4.77;;
5279;SDS011;2663;53.588;10.010;2023-04-24T09:28:29;5.07;;;4.67;;
5279;SDS011;2663;53.588;10.010;2023-04-24T09:31:09;4.73;;;4.00;;
5279;SDS011;2663;53.588;10.010;2023-04-24T09:33:40;8.90;;;5.37;;
5279;SDS011;2663;53.588;10.010;2023-04-24T09:36:09;7.03;;;4.83;;
5279;SDS011;2663;53.588;10.010;2023-04-24T09:38:36;6.00;;;4.40;;
5279;SDS011;2663;53.588;10.010;2023-04-24T09:41:07;5.93;;;4.33;;
5279;SDS011;2663;53.588;10.010;2023-04-24T09:43:34;6.90;;;5.20;;
5279;SDS011;2663;53.588;10.010;2023-04-24T09:46:05;4.73;;;4.30;;
5279;SDS011;2663;53.588;10.010;2023-04-24T09:48:34;4.47;;;3.50;;
5279;SDS011;2663;53.588;10.010;2023-04-24T09:51:03;4.77;;;4.37;;
5279;SDS011;2663;53.588;10.010;2023-04-24T09:53:32;9.63;;;4.30;;
5279;SDS011;2663;53.588;10.010;2023-04-24T09:56:06;6.43;;;4.63;;
5279;SDS011;2663;53.588;10.010;2023-04-24T09:58:36;7.03;;;5.60;;
5279;SDS011;2663;53.588;10.010;2023-04-24T10:01:03;6.27;;;4.90;;
5279;SDS011;2663;53.588;10.010;2023-04-24T10:03:31;5.87;;;4.93;;
5279;SDS011;2663;53.588;10.010;2023-04-24T10:05:59;6.70;;;5.13;;
5279;SDS011;2663;53.588;10.010;2023-04-24T10:08:33;13.90;;;4.87;;
5279;SDS011;2663;53.588;10.010;2023-04-24T10:11:01;6.37;;;5.33;;
5279;SDS011;2663;53.588;10.010;2023-04-24T10:13:28;7.57;;;5.20;;
5279;SDS011;2663;53.588;10.010;2023-04-24T10:15:55;12.83;;;6.57;;
5279;SDS011;2663;53.588;10.010;2023-04-24T10:18:22;7.43;;;5.97;;
5279;SDS011;2663;53.588;10.010;2023-04-24T10:20:50;7.37;;;5.30;;
5279;SDS011;2663;53.588;10.010;2023-04-24T10:23:17;11.67;;;6.60;;
5279;SDS011;2663;53.588;10.010;2023-04-24T10:25:45;13.80;;;6.40;;
5279;SDS011;2663;53.588;10.010;2023-04-24T10:28:12;6.17;;;5.47;;
5279;SDS011;2663;53.588;10.010;2023-04-24T10:30:40;13.30;;;8.70;;
5279;SDS011;2663;53.588;10.010;2023-04-24T10:33:09;9.70;;;6.93;;
5279;SDS011;2663;53.588;10.010;2023-04-24T10:35:41;13.07;;;7.73;;
5279;SDS011;2663;53.588;10.010;2023-04-24T10:38:12;16.40;;;9.17;;
5279;SDS011;2663;53.588;10.010;2023-04-24T10:40:40;14.70;;;6.73;;
5279;SDS011;2663;53.588;10.010;2023-04-24T10:43:08;19.23;;;9.50;;
5279;SDS011;2663;53.588;10.010;2023-04-24T10:45:38;14.60;;;7.67;;
5279;SDS011;2663;53.588;10.010;2023-04-24T10:48:05;13.47;;;9.13;;
5279;SDS011;2663;53.588;10.010;2023-04-24T10:50:47;16.80;;;9.20;;
5279;SDS011;2663;53.588;10.010;2023-04-24T10:53:20;12.07;;;8.77;;
5279;SDS011;2663;53.588;10.010;2023-04-24T10:55:50;13.80;;;10.00;;
5279;SDS011;2663;53.588;10.010;2023-04-24T10:58:24;18.83;;;8.33;;
5279;SDS011;2663;53.588;10.010;2023-04-24T11:01:01;16.77;;;9.60;;
5279;SDS011;2663;53.588;10.010;2023-04-24T11:03:29;20.40;;;10.63;;
5279;SDS011;2663;53.588;10.010;2023-04-24T11:11:13;14.50;;;9.40;;
5279;SDS011;2663;53.588;10.010;2023-04-24T11:16:28;10.93;;;9.00;;
5279;SDS011;2663;53.588;10.010;2023-04-24T11:19:04;13.40;;;8.30;;
5279;SDS011;2663;53.588;10.010;2023-04-24T11:21:39;11.87;;;9.20;;
5279;SDS011;2663;53.588;10.010;2023-04-24T11:26:59;17.27;;;9.93;;
5279;SDS011;2663;53.588;10.010;2023-04-24T11:29:43;10.60;;;7.70;;
5279;SDS011;2663;53.588;10.010;2023-04-24T11:32:27;13.03;;;7.97;;
5279;SDS011;2663;53.588;10.010;2023-04-24T11:37:23;15.90;;;7.63;;
5279;SDS011;2663;53.588;10.010;2023-04-24T11:39:52;13.97;;;7.50;;
5279;SDS011;2663;53.588;10.010;2023-04-24T11:42:19;12.97;;;8.37;;
5279;SDS011;2663;53.588;10.010;2023-04-24T11:44:48;11.53;;;7.50;;
5279;SDS011;2663;53.588;10.010;2023-04-24T11:47:15;12.63;;;8.10;;
5279;SDS011;2663;53.588;10.010;2023-04-24T11:49:42;9.63;;;6.90;;
5279;SDS011;2663;53.588;10.010;2023-04-24T11:52:09;10.10;;;7.47;;
5279;SDS011;2663;53.588;10.010;2023-04-24T11:54:36;12.70;;;8.07;;
5279;SDS011;2663;53.588;10.010;2023-04-24T11:57:04;23.43;;;7.90;;
5279;SDS011;2663;53.588;10.010;2023-04-24T11:59:35;10.40;;;6.80;;
5279;SDS011;2663;53.588;10.010;2023-04-24T12:02:03;13.67;;;8.53;;
5279;SDS011;2663;53.588;10.010;2023-04-24T12:04:38;9.57;;;6.37;;
5279;SDS011;2663;53.588;10.010;2023-04-24T12:07:08;11.53;;;6.93;;
5279;SDS011;2663;53.588;10.010;2023-04-24T12:09:42;11.27;;;6.73;;
5279;SDS011;2663;53.588;10.010;2023-04-24T12:12:15;12.20;;;6.90;;
5279;SDS011;2663;53.588;10.010;2023-04-24T12:14:44;9.67;;;6.20;;
5279;SDS011;2663;53.588;10.010;2023-04-24T12:17:31;5.20;;;4.67;;
5279;SDS011;2663;53.588;10.010;2023-04-24T12:20:06;6.30;;;5.70;;
5279;SDS011;2663;53.588;10.010;2023-04-24T12:22:43;10.07;;;6.40;;
5279;SDS011;2663;53.588;10.010;2023-04-24T12:25:11;9.47;;;5.70;;
5279;SDS011;2663;53.588;10.010;2023-04-24T12:27:37;11.13;;;6.60;;
5279;SDS011;2663;53.588;10.010;2023-04-24T12:30:05;7.87;;;6.07;;
5279;SDS011;2663;53.588;10.010;2023-04-24T12:32:40;11.70;;;6.50;;
5279;SDS011;2663;53.588;10.010;2023-04-24T12:35:13;7.67;;;6.03;;
5279;SDS011;2663;53.588;10.010;2023-04-24T12:37:42;9.50;;;6.93;;
5279;SDS011;2663;53.588;10.010;2023-04-24T12:40:12;6.10;;;4.40;;
5279;SDS011;2663;53.588;10.010;2023-04-24T12:42:43;15.17;;;6.10;;
5279;SDS011;2663;53.588;10.010;2023-04-24T12:45:11;9.97;;;5.77;;
5279;SDS011;2663;53.588;10.010;2023-04-24T12:47:38;6.40;;;3.77;;
5279;SDS011;2663;53.588;10.010;2023-04-24T12:50:09;7.37;;;5.77;;
5279;SDS011;2663;53.588;10.010;2023-04-24T12:52:38;8.17;;;6.07;;
5279;SDS011;2663;53.588;10.010;2023-04-24T12:55:05;8.37;;;6.67;;
5279;SDS011;2663;53.588;10.010;2023-04-24T12:57:36;11.87;;;6.57;;
5279;SDS011;2663;53.588;10.010;2023-04-24T13:00:05;9.50;;;7.10;;
5279;SDS011;2663;53.588;10.010;2023-04-24T13:02:33;7.00;;;6.30;;
5279;SDS011;2663;53.588;10.010;2023-04-24T13:05:01;7.60;;;6.50;;
5279;SDS011;2663;53.588;10.010;2023-04-24T13:07:28;8.03;;;6.67;;
5279;SDS011;2663;53.588;10.010;2023-04-24T13:09:55;6.30;;;4.63;;
5279;SDS011;2663;53.588;10.010;2023-04-24T13:12:23;10.73;;;5.77;;
5279;SDS011;2663;53.588;10.010;2023-04-24T13:14:52;7.20;;;5.70;;
5279;SDS011;2663;53.588;10.010;2023-04-24T13:17:19;13.50;;;6.60;;
5279;SDS011;2663;53.588;10.010;2023-04-24T13:19:46;6.57;;;5.63;;
5279;SDS011;2663;53.588;10.010;2023-04-24T13:22:15;7.20;;;5.83;;
5279;SDS011;2663;53.588;10.010;2023-04-24T13:24:43;5.17;;;4.57;;
5279;SDS011;2663;53.588;10.010;2023-04-24T13:27:09;6.07;;;4.70;;
5279;SDS011;2663;53.588;10.010;2023-04-24T13:29:36;9.17;;;5.77;;
5279;SDS011;2663;53.588;10.010;2023-04-24T13:32:03;5.13;;;4.63;;
5279;SDS011;2663;53.588;10.010;2023-04-24T13:34:30;7.47;;;4.17;;
5279;SDS011;2663;53.588;10.010;2023-04-24T13:36:57;13.30;;;5.43;;
5279;SDS011;2663;53.588;10.010;2023-04-24T13:39:25;7.00;;;5.10;;
5279;SDS011;2663;53.588;10.010;2023-04-24T13:41:52;5.73;;;4.77;;
5279;SDS011;2663;53.588;10.010;2023-04-24T13:44:19;5.73;;;5.20;;
5279;SDS011;2663;53.588;10.010;2023-04-24T13:46:48;5.47;;;4.97;;
5279;SDS011;2663;53.588;10.010;2023-04-24T13:49:18;4.93;;;4.43;;
5279;SDS011;2663;53.588;10.010;2023-04-24T13:51:45;4.57;;;4.17;;
5279;SDS011;2663;53.588;10.010;2023-04-24T13:54:12;6.80;;;4.50;;
5279;SDS011;2663;53.588;10.010;2023-04-24T13:56:39;5.00;;;4.50;;
5279;SDS011;2663;53.588;10.010;2023-04-24T13:59:06;4.37;;;3.97;;
5279;SDS011;2663;53.588;10.010;2023-04-24T14:01:33;4.67;;;4.20;;
5279;SDS011;2663;53.588;10.010;2023-04-24T14:04:00;5.60;;;3.87;;
5279;SDS011;2663;53.588;10.010;2023-04-24T14:06:27;6.23;;;4.70;;
5279;SDS011;2663;53.588;10.010;2023-04-24T14:08:54;4.77;;;4.27;;
5279;SDS011;2663;53.588;10.010;2023-04-24T14:11:20;4.43;;;3.97;;
5279;SDS011;2663;53.588;10.010;2023-04-24T14:13:48;8.60;;;4.67;;
5279;SDS011;2663;53.588;10.010;2023-04-24T14:16:16;7.27;;;4.63;;
5279;SDS011;2663;53.588;10.010;2023-04-24T14:18:43;5.00;;;4.50;;
5279;SDS011;2663;53.588;10.010;2023-04-24T14:21:09;6.80;;;4.77;;
5279;SDS011;2663;53.588;10.010;2023-04-24T14:23:36;5.70;;;5.07;;
5279;SDS011;2663;53.588;10.010;2023-04-24T14:26:03;4.83;;;4.40;;
5279;SDS011;2663;53.588;10.010;2023-04-24T14:28:30;5.50;;;4.67;;
5279;SDS011;2663;53.588;10.010;2023-04-24T14:30:56;6.30;;;4.70;;
5279;SDS011;2663;53.588;10.010;2023-04-24T14:33:23;4.63;;;4.23;;
5279;SDS011;2663;53.588;10.010;2023-04-24T14:35:50;5.83;;;4.70;;
5279;SDS011;2663;53.588;10.010;2023-04-24T14:38:16;5.23;;;4.70;;
5279;SDS011;2663;53.588;10.010;2023-04-24T14:40:43;5.63;;;4.90;;
5279;SDS011;2663;53.588;10.010;2023-04-24T14:43:30;7.17;;;5.40;;
5279;SDS011;2663;53.588;10.010;2023-04-24T14:45:56;7.43;;;4.60;;
5279;SDS011;2663;53.588;10.010;2023-04-24T14:48:23;6.37;;;5.77;;
5279;SDS011;2663;53.588;10.010;2023-04-24T14:50:50;8.73;;;6.07;;
5279;SDS011;2663;53.588;10.010;2023-04-24T14:53:17;6.80;;;6.17;;
5279;SDS011;2663;53.588;10.010;2023-04-24T14:55:44;7.23;;;6.40;;
5279;SDS011;2663;53.588;10.010;2023-04-24T14:58:11;9.03;;;7.10;;
5279;SDS011;2663;53.588;10.010;2023-04-24T15:00:38;7.13;;;6.27;;
5279;SDS011;2663;53.588;10.010;2023-04-24T15:03:04;13.50;;;6.63;;
5279;SDS011;2663;53.588;10.010;2023-04-24T15:05:32;6.93;;;6.23;;
5279;SDS011;2663;53.588;10.010;2023-04-24T15:07:59;16.10;;;5.43;;
5279;SDS011;2663;53.588;10.010;2023-04-24T15:10:25;7.63;;;6.83;;
5279;SDS011;2663;53.588;10.010;2023-04-24T15:12:52;9.80;;;7.20;;
5279;SDS011;2663;53.588;10.010;2023-04-24T15:15:19;9.83;;;8.07;;
5279;SDS011;2663;53.588;10.010;2023-04-24T15:17:45;5.93;;;5.30;;